This is the latest recevied weather packets stored in our database for station/object OH2HCY-3. If no packets are shown the sender has not sent any weather packets the latest 10 day(s).
| Time | Temp. | Humidity | Pressure | Rain* | Wind** | Luminosity | Snow |
|---|---|---|---|---|---|---|---|
| 1788293679 | 13.89° C | 91% | 1007.7 hPa | - | - | - | - |
| 1788290338 | 13.33° C | 90% | 1007.6 hPa | - | - | - | - |
| 1788287063 | 15° C | 89% | 1007.7 hPa | - | - | - | - |
| 1788283758 | 16.11° C | 85% | 1007.7 hPa | - | - | - | - |
| 1788282634 | 16.67° C | 10% | - | - | - | - | - |
| 1788282633 | 16.67° C | 84% | 1007.6 hPa | - | - | - | - |
| 1788280598 | 17.22° C | 81% | 1007.5 hPa | - | - | - | - |
| 1788279570 | 17.22° C | 80% | 1007.5 hPa | - | - | - | - |
| 1788278545 | 17.78° C | 78% | 1007.6 hPa | - | - | - | - |
| 1788277539 | 18.33° C | 75% | 1007.6 hPa | - | - | - | - |
| 1788276495 | 18.33° C | 75% | - | - | - | - | - |
| 1788276493 | 18.33° C | 75% | 1007.7 hPa | - | - | - | - |
| 1788275355 | 18.89° C | 74% | 1007.7 hPa | - | - | - | - |
| 1788271936 | 18.89° C | 74% | 1007.9 hPa | - | - | - | - |
| 1788270751 | 18.89° C | 74% | 1007.8 hPa | - | - | - | - |
| 1788269703 | 18.89° C | 73% | 1008 hPa | - | - | - | - |
| 1788268703 | 18.33° C | 76% | 1008.1 hPa | - | - | - | - |
| 1788267538 | 18.89° C | 76% | 1008 hPa | - | - | - | - |
| 1788266478 | 18.89° C | 74% | 1008.2 hPa | - | - | - | - |
| 1788264178 | 18.33° C | 74% | 1008.2 hPa | - | - | - | - |
| 1788263218 | 18.33° C | 78% | 1008.3 hPa | - | - | - | - |
| 1788262258 | 17.22° C | 81% | 1008.5 hPa | - | - | - | - |
| 1788258923 | 17.22° C | 80% | 1008.4 hPa | - | - | - | - |
| 1788257768 | 17.22° C | 81% | 1008.5 hPa | - | - | - | - |
| 1788256748 | 17.22° C | 81% | 1008.5 hPa | - | - | - | - |
* Rain since midnight (hover to see other rain measurements)
** Current wind speed in m/s (hover to see current wind gust speed)